sensor_id;sensor_type;location;lat;lon;timestamp;pressure;altitude;pressure_sealevel;temperature;humidity
1480;BME280;732;51.698;4.886;2022-12-05T00:02:11;101943.72;;;5.92;100.00
1480;BME280;732;51.698;4.886;2022-12-05T00:04:40;101952.03;;;5.86;100.00
1480;BME280;732;51.698;4.886;2022-12-05T00:07:12;101916.63;;;5.72;100.00
1480;BME280;732;51.698;4.886;2022-12-05T00:09:40;101941.00;;;5.90;100.00
1480;BME280;732;51.698;4.886;2022-12-05T00:12:09;101924.75;;;5.78;100.00
1480;BME280;732;51.698;4.886;2022-12-05T00:14:38;101942.97;;;5.94;100.00
1480;BME280;732;51.698;4.886;2022-12-05T00:17:08;101929.19;;;5.80;100.00
1480;BME280;732;51.698;4.886;2022-12-05T00:19:36;101956.69;;;6.08;100.00
1480;BME280;732;51.698;4.886;2022-12-05T00:22:04;101955.28;;;5.98;100.00
1480;BME280;732;51.698;4.886;2022-12-05T00:24:33;101939.78;;;6.00;100.00
1480;BME280;732;51.698;4.886;2022-12-05T00:27:01;101954.81;;;6.21;100.00
1480;BME280;732;51.698;4.886;2022-12-05T00:29:30;101953.94;;;6.21;100.00
1480;BME280;732;51.698;4.886;2022-12-05T00:31:58;101934.31;;;6.10;100.00
1480;BME280;732;51.698;4.886;2022-12-05T00:34:28;101946.78;;;6.17;100.00
1480;BME280;732;51.698;4.886;2022-12-05T00:36:57;101947.13;;;6.23;100.00
1480;BME280;732;51.698;4.886;2022-12-05T00:39:25;101941.34;;;6.28;100.00
1480;BME280;732;51.698;4.886;2022-12-05T00:41:53;101940.63;;;6.15;100.00
1480;BME280;732;51.698;4.886;2022-12-05T00:44:22;101947.34;;;6.11;100.00
1480;BME280;732;51.698;4.886;2022-12-05T00:46:50;101924.50;;;6.04;100.00
1480;BME280;732;51.698;4.886;2022-12-05T00:49:18;101918.47;;;6.05;100.00
1480;BME280;732;51.698;4.886;2022-12-05T00:51:48;101934.28;;;6.26;100.00
1480;BME280;732;51.698;4.886;2022-12-05T00:54:17;101934.00;;;6.20;100.00
1480;BME280;732;51.698;4.886;2022-12-05T00:56:45;101934.56;;;6.14;100.00
1480;BME280;732;51.698;4.886;2022-12-05T00:59:17;101897.09;;;5.93;100.00
1480;BME280;732;51.698;4.886;2022-12-05T01:01:48;101914.00;;;5.87;100.00
1480;BME280;732;51.698;4.886;2022-12-05T01:04:20;101900.31;;;6.05;100.00
1480;BME280;732;51.698;4.886;2022-12-05T01:06:54;101940.63;;;6.31;100.00
1480;BME280;732;51.698;4.886;2022-12-05T01:09:24;101934.78;;;6.35;100.00
1480;BME280;732;51.698;4.886;2022-12-05T01:11:52;101930.09;;;6.12;100.00
1480;BME280;732;51.698;4.886;2022-12-05T01:14:24;101917.59;;;6.05;100.00
1480;BME280;732;51.698;4.886;2022-12-05T01:16:54;101935.59;;;6.02;100.00
1480;BME280;732;51.698;4.886;2022-12-05T01:19:26;101935.09;;;5.93;100.00
1480;BME280;732;51.698;4.886;2022-12-05T01:21:57;101903.25;;;5.95;100.00
1480;BME280;732;51.698;4.886;2022-12-05T01:24:27;101907.41;;;5.77;100.00
1480;BME280;732;51.698;4.886;2022-12-05T01:26:56;101941.19;;;5.93;100.00
1480;BME280;732;51.698;4.886;2022-12-05T01:29:25;101929.25;;;5.66;100.00
1480;BME280;732;51.698;4.886;2022-12-05T01:31:54;101948.41;;;5.99;100.00
1480;BME280;732;51.698;4.886;2022-12-05T01:34:23;101943.22;;;5.99;100.00
1480;BME280;732;51.698;4.886;2022-12-05T01:36:52;101959.59;;;6.14;100.00
1480;BME280;732;51.698;4.886;2022-12-05T01:39:23;101935.84;;;6.22;100.00
1480;BME280;732;51.698;4.886;2022-12-05T01:41:52;101960.97;;;6.39;100.00
1480;BME280;732;51.698;4.886;2022-12-05T01:45:00;101959.44;;;6.43;100.00
1480;BME280;732;51.698;4.886;2022-12-05T01:47:31;101961.56;;;6.50;100.00
1480;BME280;732;51.698;4.886;2022-12-05T01:50:01;101958.63;;;6.44;100.00
1480;BME280;732;51.698;4.886;2022-12-05T01:52:31;101957.22;;;6.50;100.00
1480;BME280;732;51.698;4.886;2022-12-05T01:55:09;101947.59;;;6.48;100.00
1480;BME280;732;51.698;4.886;2022-12-05T01:57:39;101956.44;;;6.51;100.00
1480;BME280;732;51.698;4.886;2022-12-05T02:00:12;101965.19;;;6.53;100.00
1480;BME280;732;51.698;4.886;2022-12-05T02:02:45;101965.50;;;6.59;100.00
1480;BME280;732;51.698;4.886;2022-12-05T02:05:20;101945.28;;;6.54;100.00
1480;BME280;732;51.698;4.886;2022-12-05T02:07:49;101963.06;;;6.62;100.00
1480;BME280;732;51.698;4.886;2022-12-05T02:10:20;101937.03;;;6.45;100.00
1480;BME280;732;51.698;4.886;2022-12-05T02:12:49;101952.28;;;6.55;100.00
1480;BME280;732;51.698;4.886;2022-12-05T02:15:29;101971.91;;;6.66;100.00
1480;BME280;732;51.698;4.886;2022-12-05T02:18:20;101941.25;;;6.59;100.00
1480;BME280;732;51.698;4.886;2022-12-05T02:21:09;101967.13;;;6.73;100.00
1480;BME280;732;51.698;4.886;2022-12-05T02:24:02;101969.84;;;6.76;100.00
1480;BME280;732;51.698;4.886;2022-12-05T02:26:59;101967.81;;;6.87;100.00
1480;BME280;732;51.698;4.886;2022-12-05T02:29:53;101966.19;;;6.89;100.00
1480;BME280;732;51.698;4.886;2022-12-05T02:32:43;101965.38;;;6.90;100.00
1480;BME280;732;51.698;4.886;2022-12-05T02:35:27;101961.72;;;6.87;100.00
1480;BME280;732;51.698;4.886;2022-12-05T02:38:08;101928.06;;;6.72;100.00
1480;BME280;732;51.698;4.886;2022-12-05T02:40:48;101962.19;;;6.96;100.00
1480;BME280;732;51.698;4.886;2022-12-05T02:43:21;101960.50;;;6.96;100.00
1480;BME280;732;51.698;4.886;2022-12-05T02:45:58;101960.25;;;6.92;100.00
1480;BME280;732;51.698;4.886;2022-12-05T02:48:28;101933.66;;;6.80;100.00
1480;BME280;732;51.698;4.886;2022-12-05T02:50:59;101945.91;;;6.82;100.00
1480;BME280;732;51.698;4.886;2022-12-05T02:53:30;101935.44;;;6.81;100.00
1480;BME280;732;51.698;4.886;2022-12-05T02:56:00;101964.50;;;6.73;100.00
1480;BME280;732;51.698;4.886;2022-12-05T02:58:35;101962.44;;;6.84;100.00
1480;BME280;732;51.698;4.886;2022-12-05T03:01:08;101966.78;;;6.84;100.00
1480;BME280;732;51.698;4.886;2022-12-05T03:03:36;101964.91;;;6.81;100.00
1480;BME280;732;51.698;4.886;2022-12-05T03:06:10;101969.59;;;6.88;100.00
1480;BME280;732;51.698;4.886;2022-12-05T03:08:44;101950.69;;;6.74;100.00
1480;BME280;732;51.698;4.886;2022-12-05T03:11:14;101938.94;;;6.65;100.00
1480;BME280;732;51.698;4.886;2022-12-05T03:13:47;101967.38;;;6.78;100.00
1480;BME280;732;51.698;4.886;2022-12-05T03:16:22;101969.19;;;6.81;100.00
1480;BME280;732;51.698;4.886;2022-12-05T03:18:55;101969.66;;;6.90;100.00
1480;BME280;732;51.698;4.886;2022-12-05T03:21:33;101955.63;;;6.86;100.00
1480;BME280;732;51.698;4.886;2022-12-05T03:24:05;101960.81;;;6.86;100.00
1480;BME280;732;51.698;4.886;2022-12-05T03:26:49;101967.50;;;6.81;100.00
1480;BME280;732;51.698;4.886;2022-12-05T03:29:28;101921.59;;;6.64;100.00
1480;BME280;732;51.698;4.886;2022-12-05T03:32:07;101956.38;;;6.84;100.00
1480;BME280;732;51.698;4.886;2022-12-05T03:34:54;101970.50;;;6.89;100.00
1480;BME280;732;51.698;4.886;2022-12-05T03:37:32;101958.31;;;6.88;100.00
1480;BME280;732;51.698;4.886;2022-12-05T03:40:10;101969.00;;;6.94;100.00
1480;BME280;732;51.698;4.886;2022-12-05T03:42:48;101976.28;;;7.01;100.00
1480;BME280;732;51.698;4.886;2022-12-05T03:45:26;101973.78;;;7.02;100.00
1480;BME280;732;51.698;4.886;2022-12-05T03:48:05;101974.19;;;6.94;100.00
1480;BME280;732;51.698;4.886;2022-12-05T03:50:37;101968.69;;;6.88;100.00
1480;BME280;732;51.698;4.886;2022-12-05T03:53:13;101977.94;;;6.99;100.00
1480;BME280;732;51.698;4.886;2022-12-05T03:55:54;101968.28;;;6.96;100.00
1480;BME280;732;51.698;4.886;2022-12-05T03:58:29;101979.13;;;7.05;100.00
1480;BME280;732;51.698;4.886;2022-12-05T04:01:00;101978.81;;;6.99;100.00
1480;BME280;732;51.698;4.886;2022-12-05T04:03:39;101977.13;;;7.00;100.00
1480;BME280;732;51.698;4.886;2022-12-05T04:06:16;101978.69;;;6.96;100.00
1480;BME280;732;51.698;4.886;2022-12-05T04:08:53;101959.72;;;6.81;100.00
1480;BME280;732;51.698;4.886;2022-12-05T04:11:25;101977.38;;;6.88;100.00
1480;BME280;732;51.698;4.886;2022-12-05T04:13:58;101974.38;;;6.97;100.00
1480;BME280;732;51.698;4.886;2022-12-05T04:16:32;101983.41;;;6.87;100.00
1480;BME280;732;51.698;4.886;2022-12-05T04:19:26;101980.81;;;6.87;100.00
1480;BME280;732;51.698;4.886;2022-12-05T04:22:17;101973.22;;;6.74;100.00
1480;BME280;732;51.698;4.886;2022-12-05T04:24:44;101946.19;;;6.54;100.00
1480;BME280;732;51.698;4.886;2022-12-05T04:27:52;101989.25;;;6.67;100.00
1480;BME280;732;51.698;4.886;2022-12-05T04:30:26;101991.59;;;6.78;100.00
1480;BME280;732;51.698;4.886;2022-12-05T04:33:04;101993.16;;;6.75;100.00
1480;BME280;732;51.698;4.886;2022-12-05T04:35:39;101989.78;;;6.60;100.00
1480;BME280;732;51.698;4.886;2022-12-05T04:38:14;102004.94;;;6.52;100.00
1480;BME280;732;51.698;4.886;2022-12-05T04:40:51;101980.59;;;6.50;100.00
1480;BME280;732;51.698;4.886;2022-12-05T04:48:15;101995.69;;;6.41;100.00
1480;BME280;732;51.698;4.886;2022-12-05T04:50:50;101997.25;;;6.22;100.00
1480;BME280;732;51.698;4.886;2022-12-05T04:53:22;102008.00;;;6.13;100.00
1480;BME280;732;51.698;4.886;2022-12-05T04:55:54;101986.53;;;6.16;100.00
1480;BME280;732;51.698;4.886;2022-12-05T04:58:26;102007.00;;;6.42;100.00
1480;BME280;732;51.698;4.886;2022-12-05T05:01:01;102008.44;;;6.53;100.00
1480;BME280;732;51.698;4.886;2022-12-05T05:03:36;101992.78;;;6.51;100.00
1480;BME280;732;51.698;4.886;2022-12-05T05:06:10;101961.63;;;6.19;100.00
1480;BME280;732;51.698;4.886;2022-12-05T05:08:47;102000.00;;;6.41;100.00
1480;BME280;732;51.698;4.886;2022-12-05T05:11:19;102002.13;;;6.48;100.00
1480;BME280;732;51.698;4.886;2022-12-05T05:13:49;101977.44;;;6.56;100.00
1480;BME280;732;51.698;4.886;2022-12-05T05:16:21;102003.56;;;6.75;100.00
1480;BME280;732;51.698;4.886;2022-12-05T05:18:51;101982.81;;;6.59;100.00
1480;BME280;732;51.698;4.886;2022-12-05T05:21:24;101995.16;;;6.63;100.00
1480;BME280;732;51.698;4.886;2022-12-05T05:23:53;101987.19;;;6.44;100.00
1480;BME280;732;51.698;4.886;2022-12-05T05:26:23;102004.78;;;6.65;100.00
1480;BME280;732;51.698;4.886;2022-12-05T05:28:52;102008.19;;;6.64;100.00
1480;BME280;732;51.698;4.886;2022-12-05T05:31:20;102007.31;;;6.48;100.00
1480;BME280;732;51.698;4.886;2022-12-05T05:33:50;101999.00;;;6.71;100.00
1480;BME280;732;51.698;4.886;2022-12-05T05:36:22;102012.13;;;6.90;100.00
1480;BME280;732;51.698;4.886;2022-12-05T05:38:53;102009.88;;;6.80;100.00
1480;BME280;732;51.698;4.886;2022-12-05T05:41:25;102011.91;;;6.86;100.00
1480;BME280;732;51.698;4.886;2022-12-05T05:43:54;102018.50;;;6.79;100.00
1480;BME280;732;51.698;4.886;2022-12-05T05:46:26;102014.19;;;6.80;100.00
1480;BME280;732;51.698;4.886;2022-12-05T05:48:55;102020.09;;;6.77;100.00
1480;BME280;732;51.698;4.886;2022-12-05T05:51:27;102018.59;;;6.64;100.00
1480;BME280;732;51.698;4.886;2022-12-05T05:53:57;101996.75;;;6.45;100.00
1480;BME280;732;51.698;4.886;2022-12-05T05:56:26;101978.06;;;6.52;100.00
1480;BME280;732;51.698;4.886;2022-12-05T05:58:57;101996.25;;;6.68;100.00
1480;BME280;732;51.698;4.886;2022-12-05T06:01:26;101982.94;;;6.62;100.00
1480;BME280;732;51.698;4.886;2022-12-05T06:03:55;102020.66;;;6.88;100.00
1480;BME280;732;51.698;4.886;2022-12-05T06:06:24;102005.66;;;6.82;100.00
1480;BME280;732;51.698;4.886;2022-12-05T06:08:54;102014.66;;;6.72;100.00
1480;BME280;732;51.698;4.886;2022-12-05T06:11:25;102026.03;;;6.74;100.00
1480;BME280;732;51.698;4.886;2022-12-05T06:13:55;102007.63;;;6.70;100.00
1480;BME280;732;51.698;4.886;2022-12-05T06:16:24;102029.72;;;6.46;100.00
1480;BME280;732;51.698;4.886;2022-12-05T06:18:53;102028.06;;;6.64;100.00
1480;BME280;732;51.698;4.886;2022-12-05T06:21:22;102020.09;;;6.77;100.00
1480;BME280;732;51.698;4.886;2022-12-05T06:23:53;102020.44;;;6.83;100.00
1480;BME280;732;51.698;4.886;2022-12-05T06:26:22;102028.06;;;6.64;100.00
1480;BME280;732;51.698;4.886;2022-12-05T06:28:50;102029.03;;;6.82;100.00
1480;BME280;732;51.698;4.886;2022-12-05T06:31:22;102019.47;;;6.81;100.00
1480;BME280;732;51.698;4.886;2022-12-05T06:33:53;102003.88;;;6.81;100.00
1480;BME280;732;51.698;4.886;2022-12-05T06:36:21;102029.53;;;6.91;100.00
1480;BME280;732;51.698;4.886;2022-12-05T06:38:50;102026.44;;;6.82;100.00
1480;BME280;732;51.698;4.886;2022-12-05T06:41:20;102036.09;;;6.85;100.00
1480;BME280;732;51.698;4.886;2022-12-05T06:43:51;102022.38;;;6.71;100.00
1480;BME280;732;51.698;4.886;2022-12-05T06:46:27;102038.03;;;6.89;100.00
1480;BME280;732;51.698;4.886;2022-12-05T06:48:57;102031.69;;;7.00;100.00
1480;BME280;732;51.698;4.886;2022-12-05T06:51:26;102017.66;;;6.80;100.00
1480;BME280;732;51.698;4.886;2022-12-05T06:53:55;102026.81;;;6.90;100.00
1480;BME280;732;51.698;4.886;2022-12-05T06:56:25;102025.38;;;6.78;100.00
1480;BME280;732;51.698;4.886;2022-12-05T06:58:53;102045.84;;;6.89;100.00
1480;BME280;732;51.698;4.886;2022-12-05T07:01:23;102055.59;;;6.93;100.00
1480;BME280;732;51.698;4.886;2022-12-05T07:04:12;102056.38;;;7.08;100.00
1480;BME280;732;51.698;4.886;2022-12-05T07:06:43;102011.03;;;6.85;100.00
1480;BME280;732;51.698;4.886;2022-12-05T07:09:18;102061.59;;;6.75;100.00
1480;BME280;732;51.698;4.886;2022-12-05T07:11:49;102057.44;;;6.79;100.00
1480;BME280;732;51.698;4.886;2022-12-05T07:14:18;102042.13;;;6.84;100.00
1480;BME280;732;51.698;4.886;2022-12-05T07:17:06;102059.22;;;6.96;100.00
1480;BME280;732;51.698;4.886;2022-12-05T07:19:35;102061.91;;;6.98;100.00
1480;BME280;732;51.698;4.886;2022-12-05T07:22:07;102037.97;;;6.87;100.00
1480;BME280;732;51.698;4.886;2022-12-05T07:24:42;102061.41;;;7.05;100.00
1480;BME280;732;51.698;4.886;2022-12-05T07:27:13;102033.25;;;6.80;100.00
1480;BME280;732;51.698;4.886;2022-12-05T07:29:41;102066.94;;;6.95;100.00
1480;BME280;732;51.698;4.886;2022-12-05T07:32:10;102067.94;;;6.97;100.00
1480;BME280;732;51.698;4.886;2022-12-05T07:34:38;102032.78;;;6.87;100.00
1480;BME280;732;51.698;4.886;2022-12-05T07:37:08;102065.78;;;6.90;100.00
1480;BME280;732;51.698;4.886;2022-12-05T07:39:37;102072.38;;;6.99;100.00
1480;BME280;732;51.698;4.886;2022-12-05T07:42:05;102069.19;;;7.05;100.00
1480;BME280;732;51.698;4.886;2022-12-05T07:44:35;102078.72;;;7.04;100.00
1480;BME280;732;51.698;4.886;2022-12-05T07:47:04;102077.97;;;7.07;100.00
1480;BME280;732;51.698;4.886;2022-12-05T07:49:32;102049.31;;;7.05;100.00
1480;BME280;732;51.698;4.886;2022-12-05T07:52:00;102084.25;;;6.94;100.00
1480;BME280;732;51.698;4.886;2022-12-05T07:54:29;102082.53;;;6.95;100.00
1480;BME280;732;51.698;4.886;2022-12-05T07:56:57;102071.78;;;7.05;100.00
1480;BME280;732;51.698;4.886;2022-12-05T07:59:26;102079.38;;;7.00;100.00
1480;BME280;732;51.698;4.886;2022-12-05T08:01:55;102061.09;;;6.99;100.00
1480;BME280;732;51.698;4.886;2022-12-05T08:04:24;102074.50;;;7.06;100.00
1480;BME280;732;51.698;4.886;2022-12-05T08:06:52;102097.97;;;7.08;100.00
1480;BME280;732;51.698;4.886;2022-12-05T08:09:21;102090.22;;;7.09;100.00
1480;BME280;732;51.698;4.886;2022-12-05T08:11:53;102106.34;;;7.02;100.00
1480;BME280;732;51.698;4.886;2022-12-05T08:14:22;102092.31;;;7.16;100.00
1480;BME280;732;51.698;4.886;2022-12-05T08:16:50;102112.69;;;7.41;100.00
1480;BME280;732;51.698;4.886;2022-12-05T08:19:21;102113.47;;;7.06;100.00
1480;BME280;732;51.698;4.886;2022-12-05T08:21:50;102108.19;;;7.21;100.00
1480;BME280;732;51.698;4.886;2022-12-05T08:24:18;102061.25;;;7.02;100.00
1480;BME280;732;51.698;4.886;2022-12-05T08:26:46;102107.53;;;7.25;100.00
1480;BME280;732;51.698;4.886;2022-12-05T08:29:18;102113.59;;;7.25;100.00
1480;BME280;732;51.698;4.886;2022-12-05T08:31:49;102073.69;;;6.91;100.00
1480;BME280;732;51.698;4.886;2022-12-05T08:34:20;102101.34;;;7.23;100.00
1480;BME280;732;51.698;4.886;2022-12-05T08:36:49;102120.94;;;7.50;100.00
1480;BME280;732;51.698;4.886;2022-12-05T08:39:18;102068.00;;;6.98;100.00
1480;BME280;732;51.698;4.886;2022-12-05T08:41:47;102110.34;;;7.29;100.00
1480;BME280;732;51.698;4.886;2022-12-05T08:44:17;102084.19;;;7.26;100.00
1480;BME280;732;51.698;4.886;2022-12-05T08:46:47;102080.03;;;7.30;100.00
1480;BME280;732;51.698;4.886;2022-12-05T08:49:17;102113.66;;;7.43;100.00
1480;BME280;732;51.698;4.886;2022-12-05T08:51:47;102121.13;;;7.53;100.00
1480;BME280;732;51.698;4.886;2022-12-05T08:54:16;102088.56;;;7.43;100.00
1480;BME280;732;51.698;4.886;2022-12-05T08:56:44;102098.13;;;7.44;100.00
1480;BME280;732;51.698;4.886;2022-12-05T08:59:13;102077.13;;;7.24;100.00
1480;BME280;732;51.698;4.886;2022-12-05T09:01:41;102128.56;;;7.63;100.00
1480;BME280;732;51.698;4.886;2022-12-05T09:04:10;102108.53;;;7.44;100.00
1480;BME280;732;51.698;4.886;2022-12-05T09:06:40;102106.50;;;7.55;100.00
1480;BME280;732;51.698;4.886;2022-12-05T09:09:11;102078.50;;;7.33;100.00
1480;BME280;732;51.698;4.886;2022-12-05T09:11:42;102117.88;;;7.41;100.00
1480;BME280;732;51.698;4.886;2022-12-05T09:14:15;102078.59;;;7.19;100.00
1480;BME280;732;51.698;4.886;2022-12-05T09:16:45;102098.13;;;7.44;100.00
1480;BME280;732;51.698;4.886;2022-12-05T09:19:17;102130.03;;;7.58;100.00
1480;BME280;732;51.698;4.886;2022-12-05T09:21:47;102139.53;;;7.57;100.00
1480;BME280;732;51.698;4.886;2022-12-05T09:24:17;102081.81;;;7.31;100.00
1480;BME280;732;51.698;4.886;2022-12-05T09:26:45;102138.75;;;7.76;100.00
1480;BME280;732;51.698;4.886;2022-12-05T09:29:14;102142.53;;;7.65;100.00
1480;BME280;732;51.698;4.886;2022-12-05T09:31:46;102049.75;;;7.14;100.00
1480;BME280;732;51.698;4.886;2022-12-05T09:34:17;102080.97;;;7.48;100.00
1480;BME280;732;51.698;4.886;2022-12-05T09:36:46;102150.75;;;7.90;100.00
1480;BME280;732;51.698;4.886;2022-12-05T09:39:41;102155.22;;;7.93;100.00
1480;BME280;732;51.698;4.886;2022-12-05T09:42:32;102117.94;;;7.76;100.00
1480;BME280;732;51.698;4.886;2022-12-05T09:45:14;102137.56;;;7.69;100.00
1480;BME280;732;51.698;4.886;2022-12-05T09:48:00;102158.22;;;8.00;100.00
1480;BME280;732;51.698;4.886;2022-12-05T09:50:38;102110.72;;;7.70;100.00
1480;BME280;732;51.698;4.886;2022-12-05T09:53:23;102155.69;;;8.02;100.00
1480;BME280;732;51.698;4.886;2022-12-05T09:56:00;102133.59;;;7.94;100.00
1480;BME280;732;51.698;4.886;2022-12-05T09:58:40;102121.41;;;7.93;100.00
1480;BME280;732;51.698;4.886;2022-12-05T10:01:24;102140.06;;;8.02;100.00
1480;BME280;732;51.698;4.886;2022-12-05T10:04:18;102096.25;;;7.93;100.00
1480;BME280;732;51.698;4.886;2022-12-05T10:06:59;102157.59;;;8.23;100.00
1480;BME280;732;51.698;4.886;2022-12-05T10:09:47;102155.91;;;8.24;100.00
1480;BME280;732;51.698;4.886;2022-12-05T10:12:47;102131.72;;;7.91;100.00
1480;BME280;732;51.698;4.886;2022-12-05T10:15:28;102157.16;;;8.14;100.00
1480;BME280;732;51.698;4.886;2022-12-05T10:18:01;102097.56;;;7.67;100.00
1480;BME280;732;51.698;4.886;2022-12-05T10:20:35;102153.00;;;8.00;100.00
1480;BME280;732;51.698;4.886;2022-12-05T10:23:12;102148.84;;;8.04;100.00
1480;BME280;732;51.698;4.886;2022-12-05T10:26:04;102136.13;;;7.92;100.00
1480;BME280;732;51.698;4.886;2022-12-05T10:28:41;102155.78;;;8.21;100.00
1480;BME280;732;51.698;4.886;2022-12-05T10:31:18;102104.34;;;7.64;100.00
1480;BME280;732;51.698;4.886;2022-12-05T10:33:56;102134.72;;;7.47;100.00
1480;BME280;732;51.698;4.886;2022-12-05T10:36:26;102157.59;;;7.88;100.00
1480;BME280;732;51.698;4.886;2022-12-05T10:38:54;102142.31;;;7.78;100.00
1480;BME280;732;51.698;4.886;2022-12-05T10:41:24;102158.03;;;7.97;100.00
1480;BME280;732;51.698;4.886;2022-12-05T10:43:56;102158.34;;;8.03;100.00
1480;BME280;732;51.698;4.886;2022-12-05T10:46:26;102121.28;;;7.91;100.00
1480;BME280;732;51.698;4.886;2022-12-05T10:48:54;102159.09;;;8.18;100.00
1480;BME280;732;51.698;4.886;2022-12-05T10:51:27;102165.03;;;8.32;100.00
1480;BME280;732;51.698;4.886;2022-12-05T10:54:16;102159.34;;;8.40;100.00
1480;BME280;732;51.698;4.886;2022-12-05T10:56:50;102146.56;;;8.45;100.00
1480;BME280;732;51.698;4.886;2022-12-05T10:59:25;102157.47;;;8.55;100.00
1480;BME280;732;51.698;4.886;2022-12-05T11:01:56;102081.13;;;8.21;100.00
1480;BME280;732;51.698;4.886;2022-12-05T11:04:29;102128.69;;;8.52;100.00
1480;BME280;732;51.698;4.886;2022-12-05T11:07:01;102036.81;;;8.02;100.00
1480;BME280;732;51.698;4.886;2022-12-05T11:09:32;102111.78;;;8.44;100.00
1480;BME280;732;51.698;4.886;2022-12-05T11:12:13;102136.09;;;8.62;100.00
1480;BME280;732;51.698;4.886;2022-12-05T11:15:00;102099.94;;;8.51;100.00
1480;BME280;732;51.698;4.886;2022-12-05T11:17:33;102126.19;;;8.73;100.00
1480;BME280;732;51.698;4.886;2022-12-05T11:20:39;102122.28;;;8.83;100.00
1480;BME280;732;51.698;4.886;2022-12-05T11:23:24;102140.16;;;8.94;100.00
1480;BME280;732;51.698;4.886;2022-12-05T11:25:54;102104.66;;;8.77;100.00
1480;BME280;732;51.698;4.886;2022-12-05T11:28:33;102079.03;;;8.68;100.00
1480;BME280;732;51.698;4.886;2022-12-05T11:31:18;102139.06;;;9.08;100.00
1480;BME280;732;51.698;4.886;2022-12-05T11:34:03;102134.69;;;9.07;100.00
1480;BME280;732;51.698;4.886;2022-12-05T11:36:39;102141.81;;;9.11;100.00
1480;BME280;732;51.698;4.886;2022-12-05T11:39:11;102138.53;;;9.15;100.00
1480;BME280;732;51.698;4.886;2022-12-05T11:41:55;102134.94;;;9.13;100.00
1480;BME280;732;51.698;4.886;2022-12-05T11:44:51;102125.00;;;9.05;100.00
1480;BME280;732;51.698;4.886;2022-12-05T11:47:43;102135.44;;;9.05;100.00
1480;BME280;732;51.698;4.886;2022-12-05T11:50:24;102144.50;;;9.13;100.00
1480;BME280;732;51.698;4.886;2022-12-05T11:53:09;102111.03;;;9.03;100.00
1480;BME280;732;51.698;4.886;2022-12-05T11:55:50;102135.72;;;9.11;100.00
1480;BME280;732;51.698;4.886;2022-12-05T11:58:42;102082.34;;;8.84;100.00
1480;BME280;732;51.698;4.886;2022-12-05T12:01:23;102091.00;;;8.83;100.00
1480;BME280;732;51.698;4.886;2022-12-05T12:07:17;102114.81;;;8.90;100.00
1480;BME280;732;51.698;4.886;2022-12-05T12:09:57;102141.63;;;9.07;100.00
1480;BME280;732;51.698;4.886;2022-12-05T12:12:43;102115.25;;;8.82;100.00
1480;BME280;732;51.698;4.886;2022-12-05T12:15:49;102121.31;;;8.81;100.00
1480;BME280;732;51.698;4.886;2022-12-05T12:18:57;102141.00;;;8.93;100.00
1480;BME280;732;51.698;4.886;2022-12-05T12:21:42;102107.88;;;8.72;100.00
1480;BME280;732;51.698;4.886;2022-12-05T12:24:24;102087.34;;;8.60;100.00
1480;BME280;732;51.698;4.886;2022-12-05T12:27:05;102089.13;;;8.61;100.00
1480;BME280;732;51.698;4.886;2022-12-05T12:29:57;102069.63;;;8.53;100.00
1480;BME280;732;51.698;4.886;2022-12-05T12:32:38;102099.94;;;8.70;100.00
1480;BME280;732;51.698;4.886;2022-12-05T12:35:28;102091.03;;;8.65;100.00
1480;BME280;732;51.698;4.886;2022-12-05T12:38:39;102120.97;;;8.92;100.00
1480;BME280;732;51.698;4.886;2022-12-05T12:41:39;102064.63;;;8.57;100.00
1480;BME280;732;51.698;4.886;2022-12-05T12:44:34;102130.44;;;8.90;100.00
1480;BME280;732;51.698;4.886;2022-12-05T12:47:14;102123.78;;;8.97;100.00
1480;BME280;732;51.698;4.886;2022-12-05T12:50:01;102084.81;;;8.81;100.00
1480;BME280;732;51.698;4.886;2022-12-05T12:52:49;102123.22;;;9.04;100.00
1480;BME280;732;51.698;4.886;2022-12-05T12:55:29;102122.25;;;9.02;100.00
1480;BME280;732;51.698;4.886;2022-12-05T12:58:15;102077.06;;;8.82;100.00
1480;BME280;732;51.698;4.886;2022-12-05T13:00:55;102115.16;;;8.98;100.00
1480;BME280;732;51.698;4.886;2022-12-05T13:03:31;102122.34;;;9.03;100.00
1480;BME280;732;51.698;4.886;2022-12-05T13:06:11;102114.72;;;9.08;100.00
1480;BME280;732;51.698;4.886;2022-12-05T13:08:45;102079.56;;;8.79;100.00
1480;BME280;732;51.698;4.886;2022-12-05T13:11:17;102102.13;;;8.98;100.00
1480;BME280;732;51.698;4.886;2022-12-05T13:13:50;102115.50;;;9.05;100.00
1480;BME280;732;51.698;4.886;2022-12-05T13:16:25;102048.00;;;8.73;100.00
1480;BME280;732;51.698;4.886;2022-12-05T13:18:57;102114.94;;;9.12;100.00
1480;BME280;732;51.698;4.886;2022-12-05T13:21:26;102109.78;;;9.14;100.00
1480;BME280;732;51.698;4.886;2022-12-05T13:23:57;102085.63;;;8.99;100.00
1480;BME280;732;51.698;4.886;2022-12-05T13:26:32;102108.69;;;9.09;100.00
1480;BME280;732;51.698;4.886;2022-12-05T13:29:03;102110.63;;;9.13;100.00
1480;BME280;732;51.698;4.886;2022-12-05T13:31:37;102113.22;;;9.13;100.00
1480;BME280;732;51.698;4.886;2022-12-05T13:34:43;102094.13;;;8.95;100.00
1480;BME280;732;51.698;4.886;2022-12-05T13:37:24;102083.66;;;8.93;100.00
1480;BME280;732;51.698;4.886;2022-12-05T13:40:26;102110.91;;;9.00;100.00
1480;BME280;732;51.698;4.886;2022-12-05T13:43:17;102026.66;;;8.62;100.00
1480;BME280;732;51.698;4.886;2022-12-05T13:46:02;102106.94;;;9.09;100.00
1480;BME280;732;51.698;4.886;2022-12-05T13:48:34;102099.34;;;8.95;100.00
1480;BME280;732;51.698;4.886;2022-12-05T13:51:07;102105.47;;;8.95;100.00
1480;BME280;732;51.698;4.886;2022-12-05T13:53:40;102033.59;;;8.43;100.00
1480;BME280;732;51.698;4.886;2022-12-05T13:56:25;102067.72;;;8.49;100.00
1480;BME280;732;51.698;4.886;2022-12-05T13:58:57;102111.63;;;8.78;100.00
1480;BME280;732;51.698;4.886;2022-12-05T14:01:48;102113.44;;;8.79;100.00
1480;BME280;732;51.698;4.886;2022-12-05T14:04:43;102049.66;;;8.34;100.00
1480;BME280;732;51.698;4.886;2022-12-05T14:07:40;102087.06;;;8.54;100.00
1480;BME280;732;51.698;4.886;2022-12-05T14:10:13;102110.69;;;8.58;100.00
1480;BME280;732;51.698;4.886;2022-12-05T14:12:48;102114.31;;;8.43;100.00
1480;BME280;732;51.698;4.886;2022-12-05T14:15:34;102120.25;;;8.58;100.00